createdAt,value
2023-03-02T00:02:56.534Z,140.00
2023-03-02T00:06:06.629Z,138.10
2023-03-02T00:08:59.353Z,138.10
2023-03-02T00:12:22.790Z,152.70
2023-03-02T00:15:42.669Z,157.90
2023-03-02T00:18:36.573Z,146.30
2023-03-02T00:21:27.799Z,142.90
2023-03-02T00:24:19.544Z,142.70
2023-03-02T00:27:51.119Z,124.70
2023-03-02T00:31:40.521Z,123.50
2023-03-02T00:34:19.622Z,132.40
2023-03-02T00:37:11.438Z,111.50
2023-03-02T00:40:43.167Z,104.40
2023-03-02T00:43:38.060Z,129.30
2023-03-02T00:46:16.815Z,111.60
2023-03-02T00:49:48.380Z,97.80
2023-03-02T00:52:24.481Z,94.60
2023-03-02T00:55:39.353Z,84.70
2023-03-02T00:58:53.843Z,88.80
2023-03-02T01:01:31.310Z,84.50
2023-03-02T01:04:25.123Z,84.40
2023-03-02T01:07:39.029Z,77.00
2023-03-02T01:10:38.827Z,80.90
2023-03-02T01:13:30.452Z,72.70
2023-03-02T01:16:53.116Z,80.50
2023-03-02T01:20:22.628Z,81.10
2023-03-02T01:23:41.878Z,81.50
2023-03-02T01:26:30.938Z,80.50
2023-03-02T01:29:42.348Z,73.30
2023-03-02T01:32:54.309Z,76.40
2023-03-02T01:36:43.505Z,80.70
2023-03-02T01:39:55.601Z,92.40
2023-03-02T01:42:42.628Z,90.70
2023-03-02T01:46:12.194Z,98.90
2023-03-02T01:49:42.140Z,86.90
2023-03-02T01:53:15.281Z,79.20
2023-03-02T01:56:24.551Z,70.40
2023-03-02T01:59:45.208Z,74.50
2023-03-02T02:02:19.265Z,66.50
2023-03-02T02:04:55.091Z,69.30
2023-03-02T02:07:29.193Z,69.40
2023-03-02T02:10:21.634Z,70.30
2023-03-02T02:13:35.772Z,64.70
2023-03-02T02:16:35.874Z,63.70
2023-03-02T02:19:30.464Z,73.00
2023-03-02T02:23:06.595Z,74.10
2023-03-02T02:26:12.013Z,72.20
2023-03-02T02:29:31.928Z,66.20
2023-03-02T02:32:32.171Z,70.40
2023-03-02T02:35:39.002Z,70.10
2023-03-02T02:39:10.665Z,65.90
2023-03-02T02:42:07.043Z,51.30
2023-03-02T02:45:28.453Z,69.20
2023-03-02T02:48:17.955Z,70.00
2023-03-02T02:51:06.526Z,68.70
2023-03-02T02:54:37.703Z,78.60
2023-03-02T02:57:31.592Z,73.80
2023-03-02T03:01:00.678Z,60.60
2023-03-02T03:03:59.944Z,68.70
2023-03-02T03:07:06.834Z,68.70
2023-03-02T03:09:47.699Z,46.70
2023-03-02T03:13:24.757Z,68.70
2023-03-02T03:16:03.875Z,61.00
2023-03-02T03:19:06.644Z,58.20
2023-03-02T03:25:16.938Z,61.70
2023-03-02T03:28:18.233Z,61.90
2023-03-02T03:31:20.551Z,61.50
2023-03-02T03:34:20.436Z,75.50
2023-03-02T03:37:50.487Z,59.30
2023-03-02T03:40:39.852Z,67.90
2023-03-02T03:43:40.513Z,65.00
2023-03-02T03:46:36.818Z,125.70
2023-03-02T03:49:37.237Z,146.30
2023-03-02T03:52:46.099Z,138.40
2023-03-02T03:56:35.478Z,104.90
2023-03-02T04:00:06.159Z,90.00
2023-03-02T04:03:35.041Z,85.70
2023-03-02T04:06:37.962Z,68.70
2023-03-02T04:09:47.623Z,76.10
2023-03-02T04:12:36.131Z,63.50
2023-03-02T04:15:33.921Z,67.30
2023-03-02T04:18:52.601Z,69.50
2023-03-02T04:22:06.071Z,56.60
2023-03-02T04:24:57.925Z,74.80
2023-03-02T04:28:00.731Z,76.70
2023-03-02T04:31:15.443Z,95.00
2023-03-02T04:37:41.733Z,93.70
2023-03-02T04:41:23.418Z,91.90
2023-03-02T04:44:35.436Z,92.30
2023-03-02T04:47:33.829Z,96.30
2023-03-02T04:50:15.191Z,86.40
2023-03-02T04:53:13.520Z,77.30
2023-03-02T04:56:05.006Z,80.30
2023-03-02T04:59:06.888Z,72.00
2023-03-02T05:02:56.059Z,71.80
2023-03-02T05:05:47.693Z,62.30
2023-03-02T05:09:04.789Z,66.80
2023-03-02T05:12:13.602Z,60.00
2023-03-02T05:14:55.366Z,54.70
2023-03-02T05:17:35.249Z,64.40
2023-03-02T05:20:37.785Z,62.60
2023-03-02T05:23:25.581Z,62.00
2023-03-02T05:26:44.269Z,54.20
2023-03-02T05:29:33.326Z,64.50
2023-03-02T05:32:26.598Z,70.30
2023-03-02T05:35:07.937Z,63.70
2023-03-02T05:38:16.999Z,69.40
2023-03-02T05:40:53.488Z,72.80
2023-03-02T05:43:27.246Z,64.40
2023-03-02T05:46:22.141Z,74.50
2023-03-02T05:49:05.011Z,78.10
2023-03-02T05:51:58.920Z,78.80
2023-03-02T05:54:49.870Z,76.00
2023-03-02T05:57:38.345Z,79.00
2023-03-02T06:00:08.657Z,77.10
2023-03-02T06:05:51.068Z,89.00
2023-03-02T06:08:43.478Z,99.80
2023-03-02T06:11:18.003Z,124.10
2023-03-02T06:14:12.657Z,116.50
2023-03-02T06:16:52.167Z,168.60
2023-03-02T06:19:43.516Z,217.60
2023-03-02T06:22:32.049Z,291.40
2023-03-02T06:25:25.100Z,275.70
2023-03-02T06:28:22.153Z,233.80
2023-03-02T06:30:51.336Z,218.10
2023-03-02T06:33:30.447Z,206.40
2023-03-02T06:36:28.881Z,238.60
2023-03-02T06:39:19.013Z,238.00
2023-03-02T06:42:48.100Z,184.80
2023-03-02T06:45:38.238Z,185.50
2023-03-02T06:48:12.199Z,173.30
2023-03-02T06:50:53.508Z,180.50
2023-03-02T06:54:24.049Z,182.70
2023-03-02T06:57:22.108Z,184.20
2023-03-02T07:00:11.008Z,175.40
2023-03-02T07:02:47.325Z,171.80
2023-03-02T07:05:50.116Z,164.90
2023-03-02T07:08:21.722Z,155.40
2023-03-02T07:11:43.825Z,151.40
2023-03-02T07:26:28.087Z,143.10
2023-03-02T07:28:59.360Z,144.30
2023-03-02T07:31:27.881Z,145.30
2023-03-02T07:34:21.369Z,138.80
2023-03-02T07:37:08.009Z,149.90
2023-03-02T07:40:00.796Z,145.70
2023-03-02T07:42:47.114Z,145.90
2023-03-02T07:45:21.467Z,143.40
2023-03-02T07:48:13.242Z,153.70
2023-03-02T07:50:41.802Z,167.70
2023-03-02T07:53:13.372Z,148.70
2023-03-02T07:55:54.762Z,142.70
2023-03-02T07:59:33.832Z,152.70
2023-03-02T08:02:39.775Z,152.20
2023-03-02T08:05:18.519Z,147.30
2023-03-02T08:07:47.494Z,145.60
2023-03-02T08:10:39.664Z,142.80
2023-03-02T08:13:33.954Z,144.80
2023-03-02T08:16:23.142Z,137.00
2023-03-02T08:18:54.612Z,134.50
2023-03-02T08:21:49.323Z,136.60
2023-03-02T08:24:41.770Z,147.30
2023-03-02T08:27:17.959Z,135.60
2023-03-02T08:29:59.040Z,136.50
2023-03-02T08:32:27.832Z,128.90
2023-03-02T08:35:34.168Z,131.20
2023-03-02T08:38:45.700Z,123.70
2023-03-02T08:42:26.163Z,107.70
2023-03-02T08:45:53.122Z,125.10
2023-03-02T08:48:57.695Z,133.10
2023-03-02T08:51:57.190Z,136.40
2023-03-02T08:55:06.900Z,145.80
2023-03-02T08:57:49.753Z,148.90
2023-03-02T09:00:44.744Z,139.60
2023-03-02T09:03:56.184Z,147.20
2023-03-02T09:06:47.324Z,163.00
2023-03-02T09:09:59.996Z,170.80
2023-03-02T09:13:16.815Z,168.90
2023-03-02T09:16:27.463Z,161.00
2023-03-02T09:19:44.513Z,181.50
2023-03-02T09:23:07.982Z,165.70
2023-03-02T09:26:16.922Z,167.20
2023-03-02T09:29:26.127Z,154.30
2023-03-02T09:33:05.251Z,144.90
2023-03-02T09:35:55.961Z,140.60
2023-03-02T09:39:09.472Z,137.20
2023-03-02T09:45:41.256Z,125.10
2023-03-02T09:49:20.050Z,117.60
2023-03-02T09:52:16.508Z,88.50
2023-03-02T09:55:25.523Z,65.50
2023-03-02T09:58:44.990Z,63.20
2023-03-02T10:01:55.222Z,64.40
2023-03-02T10:05:03.137Z,62.30
2023-03-02T10:08:12.621Z,63.10
2023-03-02T10:11:47.434Z,51.40
2023-03-02T10:15:11.920Z,62.00
2023-03-02T10:19:04.392Z,63.60
2023-03-02T10:22:33.718Z,59.70
2023-03-02T10:25:59.384Z,55.30
2023-03-02T10:29:11.545Z,60.80
2023-03-02T10:43:43.500Z,51.70
2023-03-02T10:47:11.194Z,50.90
2023-03-02T10:49:47.613Z,55.70
2023-03-02T10:52:59.772Z,48.70
2023-03-02T10:56:32.923Z,41.70
2023-03-02T10:59:37.269Z,37.70
2023-03-02T11:02:38.795Z,35.00
2023-03-02T11:05:44.382Z,35.80
2023-03-02T11:08:46.940Z,34.40
2023-03-02T11:11:50.949Z,34.10
2023-03-02T11:14:39.490Z,37.00
2023-03-02T11:17:37.172Z,36.30
2023-03-02T11:21:17.772Z,33.70
2023-03-02T11:24:59.600Z,33.80
2023-03-02T11:28:30.657Z,39.30
2023-03-02T11:31:39.168Z,37.00
2023-03-02T11:35:31.679Z,34.10
2023-03-02T11:39:21.139Z,33.20
2023-03-02T12:19:05.854Z,28.70
2023-03-02T12:22:34.431Z,30.40
2023-03-02T12:26:00.813Z,29.50
2023-03-02T12:29:19.196Z,28.60
2023-03-02T12:36:06.800Z,29.40
2023-03-02T12:41:59.917Z,25.20
2023-03-02T12:48:51.020Z,26.40
2023-03-02T12:51:55.807Z,26.80
2023-03-02T12:54:37.295Z,26.30
2023-03-02T13:04:59.739Z,23.40
2023-03-02T13:08:25.492Z,21.40
2023-03-02T13:11:49.257Z,21.60
2023-03-02T13:14:35.036Z,22.50
2023-03-02T13:18:04.345Z,23.70
2023-03-02T13:21:41.965Z,24.60
2023-03-02T13:29:14.433Z,20.90
2023-03-02T13:32:29.595Z,21.40
2023-03-02T13:35:31.476Z,20.30
2023-03-02T13:39:20.314Z,20.00
2023-03-02T13:43:00.061Z,23.30
2023-03-02T13:46:00.392Z,21.60
2023-03-02T13:48:33.537Z,22.90
2023-03-02T13:59:00.695Z,23.00
2023-03-02T14:01:36.779Z,22.30
2023-03-02T14:04:23.183Z,21.90
2023-03-02T14:07:09.477Z,23.40
2023-03-02T14:09:50.774Z,22.70
2023-03-02T14:12:46.652Z,23.90
2023-03-02T14:16:01.432Z,25.70
2023-03-02T14:19:30.259Z,52.80
2023-03-02T14:23:06.813Z,29.60
2023-03-02T14:25:57.438Z,29.70
2023-03-02T14:29:04.665Z,30.80
2023-03-02T14:32:54.643Z,33.10
2023-03-02T14:36:10.759Z,31.80
2023-03-02T14:39:18.937Z,35.30
2023-03-02T14:42:32.756Z,37.40
2023-03-02T14:45:44.832Z,33.30
2023-03-02T14:48:40.694Z,38.80
2023-03-02T14:52:19.680Z,33.00
2023-03-02T14:55:52.185Z,48.80
2023-03-02T14:59:13.437Z,108.50
2023-03-02T15:02:55.379Z,80.10
2023-03-02T15:06:01.780Z,69.10
2023-03-02T15:08:59.222Z,43.70
2023-03-02T15:12:18.296Z,96.30
2023-03-02T15:15:57.410Z,79.40
2023-03-02T15:18:45.655Z,49.30
2023-03-02T15:21:48.462Z,42.80
2023-03-02T15:24:38.136Z,38.50
2023-03-02T15:27:18.924Z,35.60
2023-03-02T15:29:51.086Z,39.10
2023-03-02T15:32:31.260Z,38.70
2023-03-02T15:35:15.381Z,42.60
2023-03-02T15:38:28.392Z,40.90
2023-03-02T15:45:37.589Z,49.80
2023-03-02T15:48:43.326Z,46.20
2023-03-02T15:51:52.969Z,53.20
2023-03-02T15:57:40.262Z,50.80
2023-03-02T16:00:54.257Z,57.70
2023-03-02T16:03:44.275Z,51.60
2023-03-02T16:07:05.245Z,49.80
2023-03-02T16:10:26.764Z,43.60
2023-03-02T16:13:41.254Z,53.30
2023-03-02T16:17:20.655Z,54.40
2023-03-02T16:20:51.195Z,43.90
2023-03-02T16:24:29.509Z,47.20
2023-03-02T16:27:31.304Z,53.50
2023-03-02T16:31:02.978Z,60.20
2023-03-02T16:33:41.338Z,66.60
2023-03-02T16:36:32.858Z,66.70
2023-03-02T16:39:23.407Z,67.80
2023-03-02T16:42:50.373Z,79.80
2023-03-02T16:46:14.506Z,76.20
2023-03-02T16:49:45.518Z,76.30
2023-03-02T16:53:34.996Z,85.00
2023-03-02T16:57:24.372Z,168.80
2023-03-02T17:00:55.469Z,185.20
2023-03-02T17:04:27.450Z,163.70
2023-03-02T17:08:17.104Z,174.80
2023-03-02T17:11:29.708Z,184.40
2023-03-02T17:18:50.124Z,185.40
2023-03-02T18:08:13.575Z,204.90
2023-03-02T18:18:10.950Z,270.50
2023-03-02T18:21:43.236Z,276.90
2023-03-02T18:25:24.274Z,266.00
2023-03-02T18:28:55.889Z,274.40
2023-03-02T18:32:45.333Z,271.10
2023-03-02T18:36:15.731Z,274.20
2023-03-02T18:46:47.583Z,266.70
2023-03-02T18:50:08.397Z,223.90
2023-03-02T18:53:39.355Z,219.40
2023-03-02T19:03:11.307Z,241.90
2023-03-02T19:06:21.361Z,295.20
2023-03-02T19:09:43.165Z,297.00
2023-03-02T19:13:33.306Z,316.90
2023-03-02T19:17:20.911Z,284.20
2023-03-02T19:19:58.918Z,373.60
2023-03-02T19:23:09.421Z,284.70
2023-03-02T19:30:20.197Z,221.20
2023-03-02T19:33:41.296Z,237.40
2023-03-02T19:40:49.260Z,303.10
2023-03-02T19:43:23.128Z,249.80
2023-03-02T19:46:52.632Z,259.10
2023-03-02T19:49:34.555Z,264.80
2023-03-02T19:52:36.949Z,260.40
2023-03-02T19:55:37.660Z,290.20
2023-03-02T19:59:01.488Z,303.50
2023-03-02T20:02:30.904Z,326.50
2023-03-02T20:05:40.699Z,303.70
2023-03-02T20:09:19.368Z,328.90
2023-03-02T20:12:11.650Z,320.60
2023-03-02T20:15:24.284Z,298.20
2023-03-02T20:19:04.384Z,303.80
2023-03-02T20:22:50.337Z,284.40
2023-03-02T20:26:32.544Z,226.80
2023-03-02T20:30:14.687Z,202.10
2023-03-02T20:33:30.152Z,208.80
2023-03-02T20:37:19.483Z,201.00
2023-03-02T20:40:49.257Z,257.40
2023-03-02T20:44:38.642Z,257.40
2023-03-02T20:48:11.424Z,250.90
2023-03-02T21:10:16.703Z,143.50
2023-03-02T21:13:28.418Z,101.50
2023-03-02T21:16:48.694Z,99.00
2023-03-02T21:20:08.748Z,108.20
2023-03-02T21:23:26.805Z,115.90
2023-03-02T21:26:45.591Z,112.90
2023-03-02T21:30:17.656Z,102.50
2023-03-02T21:34:06.852Z,96.50
2023-03-02T21:37:56.060Z,106.70
2023-03-02T21:41:35.163Z,110.60
2023-03-02T21:45:47.131Z,122.10
2023-03-02T21:49:36.752Z,112.70
2023-03-02T21:53:21.096Z,129.30
2023-03-02T21:56:56.043Z,125.30
2023-03-02T22:00:47.879Z,156.50
2023-03-02T22:04:17.796Z,287.10
2023-03-02T22:22:31.291Z,186.10
2023-03-02T22:26:19.188Z,167.40
2023-03-02T22:30:09.367Z,160.50
2023-03-02T22:33:59.055Z,144.60
2023-03-02T22:37:40.361Z,136.80
2023-03-02T22:41:11.332Z,102.30
2023-03-02T22:44:51.774Z,117.90
2023-03-02T22:48:34.836Z,142.10
2023-03-02T23:04:02.126Z,132.70
2023-03-02T23:07:41.152Z,151.40
2023-03-02T23:11:03.029Z,138.40
2023-03-02T23:15:01.420Z,133.70
2023-03-02T23:18:53.899Z,133.70
2023-03-02T23:22:19.275Z,117.80
2023-03-02T23:25:50.599Z,119.30
2023-03-02T23:29:29.504Z,110.00
2023-03-02T23:44:06.997Z,125.00
